createdAt,value
2023-05-10T00:01:44.282Z,12.32
2023-05-10T00:04:11.241Z,12.64
2023-05-10T00:06:40.118Z,12.40
2023-05-10T00:09:09.032Z,12.44
2023-05-10T00:11:35.872Z,12.29
2023-05-10T00:14:04.797Z,12.24
2023-05-10T00:16:33.605Z,12.42
2023-05-10T00:19:02.463Z,12.64
2023-05-10T00:21:29.470Z,11.82
2023-05-10T00:23:56.162Z,11.99
2023-05-10T00:26:24.887Z,12.05
2023-05-10T00:28:51.434Z,12.10
2023-05-10T00:31:20.119Z,12.02
2023-05-10T00:33:46.696Z,12.13
2023-05-10T00:36:13.278Z,12.20
2023-05-10T00:38:39.821Z,12.24
2023-05-10T00:41:10.905Z,12.21
2023-05-10T00:43:39.755Z,12.29
2023-05-10T00:46:07.051Z,12.30
2023-05-10T00:48:36.374Z,12.12
2023-05-10T00:51:07.043Z,12.19
2023-05-10T00:53:36.421Z,12.09
2023-05-10T00:56:04.246Z,12.14
2023-05-10T00:58:36.072Z,12.11
2023-05-10T01:01:08.438Z,12.06
2023-05-10T01:03:37.713Z,11.88
2023-05-10T01:06:06.892Z,11.60
2023-05-10T01:08:38.790Z,11.81
2023-05-10T01:11:13.394Z,11.68
2023-05-10T01:13:43.339Z,11.57
2023-05-10T01:16:12.646Z,11.68
2023-05-10T01:18:42.076Z,11.70
2023-05-10T01:21:42.869Z,11.49
2023-05-10T01:24:46.913Z,11.53
2023-05-10T01:27:26.041Z,11.42
2023-05-10T01:30:14.017Z,11.62
2023-05-10T01:32:56.791Z,11.41
2023-05-10T01:35:33.570Z,11.28
2023-05-10T01:38:18.021Z,11.49
2023-05-10T01:41:12.266Z,11.41
2023-05-10T01:43:49.599Z,11.62
2023-05-10T01:46:21.694Z,11.53
2023-05-10T01:48:55.134Z,11.48
2023-05-10T01:51:26.241Z,11.51
2023-05-10T01:54:02.388Z,11.68
2023-05-10T01:56:31.971Z,11.62
2023-05-10T01:59:00.223Z,11.24
2023-05-10T02:01:28.235Z,11.39
2023-05-10T02:03:56.324Z,11.40
2023-05-10T02:06:24.791Z,11.53
2023-05-10T02:08:55.637Z,11.42
2023-05-10T02:11:23.502Z,11.28
2023-05-10T02:13:52.694Z,11.32
2023-05-10T02:16:22.046Z,11.41
2023-05-10T02:18:49.768Z,11.09
2023-05-10T02:21:17.831Z,11.11
2023-05-10T02:23:48.451Z,11.21
2023-05-10T02:26:17.032Z,11.13
2023-05-10T02:28:46.694Z,11.25
2023-05-10T02:31:14.203Z,11.14
2023-05-10T02:33:44.557Z,10.95
2023-05-10T02:36:18.399Z,11.22
2023-05-10T02:38:49.272Z,11.24
2023-05-10T02:41:16.351Z,11.26
2023-05-10T02:43:50.701Z,11.46
2023-05-10T02:46:19.937Z,11.58
2023-05-10T02:48:49.112Z,11.52
2023-05-10T02:51:18.630Z,11.63
2023-05-10T02:53:50.520Z,11.50
2023-05-10T02:56:32.212Z,11.68
2023-05-10T02:58:58.943Z,11.72
2023-05-10T03:01:25.632Z,11.50
2023-05-10T03:03:54.982Z,11.57
2023-05-10T03:06:26.484Z,11.69
2023-05-10T03:08:55.657Z,11.72
2023-05-10T03:11:33.183Z,11.48
2023-05-10T03:14:18.593Z,11.62
2023-05-10T03:17:00.711Z,11.49
2023-05-10T03:19:42.637Z,11.50
2023-05-10T03:22:14.217Z,11.51
2023-05-10T03:24:42.266Z,11.58
2023-05-10T03:27:12.754Z,11.37
2023-05-10T03:29:40.637Z,11.51
2023-05-10T03:32:07.482Z,11.65
2023-05-10T03:34:34.054Z,11.57
2023-05-10T03:37:00.824Z,11.58
2023-05-10T03:39:30.156Z,11.56
2023-05-10T03:41:59.206Z,11.56
2023-05-10T03:44:25.718Z,11.12
2023-05-10T03:46:52.460Z,11.24
2023-05-10T03:49:21.620Z,11.33
2023-05-10T03:51:48.042Z,11.45
2023-05-10T03:54:14.548Z,11.38
2023-05-10T03:56:46.165Z,11.58
2023-05-10T03:59:17.356Z,11.46
2023-05-10T04:01:44.396Z,11.38
2023-05-10T04:04:13.396Z,11.27
2023-05-10T04:06:40.215Z,11.40
2023-05-10T04:09:06.887Z,11.63
2023-05-10T04:11:35.948Z,11.29
2023-05-10T04:14:05.291Z,11.34
2023-05-10T04:16:32.112Z,11.27
2023-05-10T04:19:01.076Z,11.27
2023-05-10T04:21:29.891Z,11.46
2023-05-10T04:23:56.436Z,11.25
2023-05-10T04:26:27.572Z,11.36
2023-05-10T04:28:56.795Z,11.57
2023-05-10T04:31:25.724Z,11.52
2023-05-10T04:33:52.691Z,11.62
2023-05-10T04:36:22.378Z,11.62
2023-05-10T04:38:51.237Z,11.56
2023-05-10T04:41:20.146Z,11.47
2023-05-10T04:43:50.465Z,11.52
2023-05-10T04:46:19.218Z,11.55
2023-05-10T04:48:45.848Z,11.63
2023-05-10T04:51:12.548Z,11.89
2023-05-10T04:53:43.084Z,11.89
2023-05-10T04:56:15.997Z,11.95
2023-05-10T04:58:42.577Z,11.97
2023-05-10T05:01:09.527Z,11.73
2023-05-10T05:03:36.553Z,11.93
2023-05-10T05:06:03.929Z,12.23
2023-05-10T05:08:30.493Z,12.24
2023-05-10T05:10:57.099Z,12.23
2023-05-10T05:13:25.902Z,12.04
2023-05-10T05:15:52.705Z,12.18
2023-05-10T05:18:19.497Z,12.21
2023-05-10T05:20:46.077Z,12.36
2023-05-10T05:23:12.665Z,12.39
2023-05-10T05:25:43.825Z,12.40
2023-05-10T05:28:12.734Z,12.26
2023-05-10T05:30:39.306Z,12.38
2023-05-10T05:33:05.940Z,12.57
2023-05-10T05:35:32.513Z,12.52
2023-05-10T05:37:59.100Z,12.66
2023-05-10T05:40:27.983Z,12.60
2023-05-10T05:42:54.574Z,12.60
2023-05-10T05:45:23.567Z,12.73
2023-05-10T05:47:50.348Z,12.81
2023-05-10T05:50:19.244Z,12.93
2023-05-10T05:52:45.805Z,13.10
2023-05-10T05:55:12.895Z,12.93
2023-05-10T05:57:41.536Z,12.92
2023-05-10T06:00:08.769Z,12.91
2023-05-10T06:02:35.536Z,13.18
2023-05-10T06:05:02.281Z,13.11
2023-05-10T06:07:28.859Z,13.20
2023-05-10T06:09:55.591Z,13.17
2023-05-10T06:12:24.394Z,13.16
2023-05-10T06:14:54.033Z,13.31
2023-05-10T06:17:23.264Z,13.67
2023-05-10T06:19:49.805Z,13.69
2023-05-10T06:22:18.849Z,13.65
2023-05-10T06:24:49.995Z,13.72
2023-05-10T06:27:19.045Z,13.71
2023-05-10T06:29:45.461Z,13.69
2023-05-10T06:32:14.346Z,13.67
2023-05-10T06:34:41.016Z,13.98
2023-05-10T06:37:09.938Z,14.09
2023-05-10T06:39:36.532Z,13.98
2023-05-10T06:42:05.583Z,14.13
2023-05-10T06:44:34.523Z,13.91
2023-05-10T06:47:01.304Z,13.97
2023-05-10T06:49:27.913Z,14.17
2023-05-10T06:51:57.166Z,14.27
2023-05-10T06:54:26.315Z,14.43
2023-05-10T06:56:55.179Z,14.53
2023-05-10T06:59:22.868Z,14.58
2023-05-10T07:01:54.814Z,14.60
2023-05-10T07:04:21.678Z,14.61
2023-05-10T07:06:48.576Z,14.82
2023-05-10T07:09:15.152Z,14.81
2023-05-10T07:11:44.219Z,15.07
2023-05-10T07:14:10.864Z,15.14
2023-05-10T07:16:40.302Z,14.85
2023-05-10T07:19:09.329Z,14.86
2023-05-10T07:21:36.335Z,15.22
2023-05-10T07:24:03.495Z,15.29
2023-05-10T07:26:30.694Z,15.30
2023-05-10T07:28:57.396Z,14.94
2023-05-10T07:31:23.976Z,14.91
2023-05-10T07:33:53.082Z,15.16
2023-05-10T07:36:22.175Z,15.59
2023-05-10T07:38:48.764Z,15.52
2023-05-10T07:41:15.409Z,15.50
2023-05-10T07:43:44.704Z,15.59
2023-05-10T07:46:16.253Z,15.77
2023-05-10T07:48:45.100Z,16.04
2023-05-10T07:51:11.916Z,15.93
2023-05-10T07:53:41.545Z,15.97
2023-05-10T07:56:30.741Z,15.92
2023-05-10T07:58:57.850Z,15.96
2023-05-10T08:01:25.339Z,15.88
2023-05-10T08:03:52.566Z,16.01
2023-05-10T08:06:23.175Z,15.73
2023-05-10T08:08:51.524Z,15.68
2023-05-10T08:11:18.740Z,15.84
2023-05-10T08:13:48.761Z,15.71
2023-05-10T08:16:15.770Z,15.69
2023-05-10T08:18:42.556Z,16.00
2023-05-10T08:21:09.222Z,16.35
2023-05-10T08:23:36.078Z,16.62
2023-05-10T08:26:02.744Z,16.92
2023-05-10T08:28:29.571Z,16.87
2023-05-10T08:30:58.691Z,16.28
2023-05-10T08:33:26.349Z,16.53
2023-05-10T08:35:55.351Z,16.90
2023-05-10T08:38:22.002Z,17.18
2023-05-10T08:40:51.846Z,17.45
2023-05-10T08:43:19.395Z,17.51
2023-05-10T08:45:48.042Z,17.55
2023-05-10T08:48:15.196Z,17.62
2023-05-10T08:50:45.749Z,17.34
2023-05-10T08:53:16.059Z,17.00
2023-05-10T08:55:45.417Z,16.53
2023-05-10T08:58:12.129Z,16.47
2023-05-10T09:00:41.311Z,16.35
2023-05-10T09:03:08.208Z,16.53
2023-05-10T09:05:37.315Z,16.52
2023-05-10T09:08:04.291Z,16.60
2023-05-10T09:10:32.067Z,16.96
2023-05-10T09:12:59.638Z,17.13
2023-05-10T09:15:27.130Z,17.44
2023-05-10T09:17:56.570Z,17.39
2023-05-10T09:20:23.600Z,17.79
2023-05-10T09:22:52.492Z,17.95
2023-05-10T09:25:19.426Z,17.91
2023-05-10T09:27:49.634Z,17.88
2023-05-10T09:30:27.457Z,17.60
2023-05-10T09:32:58.174Z,17.61
2023-05-10T09:35:29.458Z,17.46
2023-05-10T09:37:58.290Z,17.78
2023-05-10T09:40:26.648Z,17.85
2023-05-10T09:43:08.706Z,18.10
2023-05-10T09:45:38.538Z,17.79
2023-05-10T09:48:08.783Z,17.88
2023-05-10T09:50:37.756Z,18.04
2023-05-10T09:53:07.781Z,17.97
2023-05-10T09:55:39.652Z,18.18
2023-05-10T09:58:11.965Z,18.33
2023-05-10T10:00:40.607Z,17.85
2023-05-10T10:03:13.137Z,17.56
2023-05-10T10:05:45.106Z,17.75
2023-05-10T10:08:13.248Z,17.74
2023-05-10T10:10:46.942Z,17.51
2023-05-10T10:13:16.673Z,17.99
2023-05-10T10:15:45.281Z,18.56
2023-05-10T10:18:16.685Z,18.70
2023-05-10T10:20:43.856Z,19.03
2023-05-10T10:23:11.120Z,18.99
2023-05-10T10:25:41.403Z,18.89
2023-05-10T10:28:46.952Z,18.79
2023-05-10T10:31:25.668Z,18.47
2023-05-10T10:34:12.153Z,18.28
2023-05-10T10:36:48.128Z,18.24
2023-05-10T10:39:15.444Z,17.87
2023-05-10T10:41:54.974Z,18.10
2023-05-10T10:44:37.941Z,18.53
2023-05-10T10:47:15.552Z,18.96
2023-05-10T10:49:42.648Z,19.03
2023-05-10T10:52:24.109Z,19.21
2023-05-10T10:54:55.812Z,19.46
2023-05-10T10:57:27.677Z,19.44
2023-05-10T11:00:23.256Z,19.23
2023-05-10T11:03:00.975Z,19.42
2023-05-10T11:05:33.717Z,19.55
2023-05-10T11:08:01.406Z,19.45
2023-05-10T11:10:30.931Z,19.62
2023-05-10T11:13:07.384Z,20.11
2023-05-10T11:15:41.814Z,20.11
2023-05-10T11:18:28.541Z,19.84
2023-05-10T11:21:11.680Z,19.89
2023-05-10T11:23:41.358Z,19.64
2023-05-10T11:26:12.330Z,20.31
2023-05-10T11:28:50.018Z,20.75
2023-05-10T11:31:18.464Z,20.97
2023-05-10T11:33:51.067Z,21.32
2023-05-10T11:36:20.651Z,21.74
2023-05-10T11:38:48.702Z,21.74
2023-05-10T11:41:20.102Z,21.83
2023-05-10T11:43:56.763Z,21.63
2023-05-10T11:46:25.161Z,21.31
2023-05-10T11:48:58.891Z,20.96
2023-05-10T11:51:30.257Z,20.71
2023-05-10T11:53:58.260Z,20.53
2023-05-10T11:56:28.008Z,20.49
2023-05-10T11:58:56.991Z,20.26
2023-05-10T12:01:27.638Z,20.25
2023-05-10T12:03:59.925Z,20.20
2023-05-10T12:06:32.905Z,20.27
2023-05-10T12:09:04.824Z,20.41
2023-05-10T12:11:31.874Z,20.86
2023-05-10T12:13:58.946Z,21.07
2023-05-10T12:16:29.285Z,21.07
2023-05-10T12:19:00.931Z,20.67
2023-05-10T12:21:29.803Z,20.72
2023-05-10T12:24:03.145Z,20.32
2023-05-10T12:26:30.463Z,20.26
2023-05-10T12:29:13.225Z,19.89
2023-05-10T12:31:59.754Z,19.15
2023-05-10T12:34:34.023Z,19.43
2023-05-10T12:37:03.611Z,19.29
2023-05-10T12:39:41.374Z,19.08
2023-05-10T12:42:14.129Z,19.20
2023-05-10T12:44:43.346Z,19.62
2023-05-10T12:47:10.031Z,19.54
2023-05-10T12:49:36.649Z,19.81
2023-05-10T12:52:07.898Z,19.90
2023-05-10T12:54:35.029Z,20.12
2023-05-10T12:57:02.041Z,20.59
2023-05-10T12:59:28.588Z,20.41
2023-05-10T13:02:00.358Z,19.89
2023-05-10T13:04:29.359Z,19.68
2023-05-10T13:07:00.004Z,19.67
2023-05-10T13:09:30.628Z,19.93
2023-05-10T13:11:59.910Z,19.69
2023-05-10T13:14:26.833Z,19.81
2023-05-10T13:16:53.499Z,20.13
2023-05-10T13:19:20.882Z,20.09
2023-05-10T13:21:48.116Z,20.13
2023-05-10T13:24:14.941Z,20.33
2023-05-10T13:26:42.107Z,19.83
2023-05-10T13:29:09.100Z,19.84
2023-05-10T13:31:38.484Z,19.55
2023-05-10T13:34:06.559Z,19.53
2023-05-10T13:36:33.134Z,19.63
2023-05-10T13:39:04.396Z,19.63
2023-05-10T13:41:31.031Z,19.77
2023-05-10T13:43:57.982Z,19.87
2023-05-10T13:46:26.898Z,19.81
2023-05-10T13:48:53.865Z,19.64
2023-05-10T13:51:20.502Z,19.71
2023-05-10T13:53:49.486Z,19.57
2023-05-10T13:56:16.299Z,19.56
2023-05-10T13:58:45.358Z,19.46
2023-05-10T14:01:14.489Z,19.32
2023-05-10T14:03:41.333Z,19.11
2023-05-10T14:06:08.778Z,19.35
2023-05-10T14:08:36.498Z,19.40
2023-05-10T14:11:05.513Z,19.62
2023-05-10T14:13:32.359Z,19.71
2023-05-10T14:16:01.476Z,19.76
2023-05-10T14:18:28.435Z,19.92
2023-05-10T14:20:55.639Z,19.88
2023-05-10T14:23:25.418Z,19.70
2023-05-10T14:25:53.426Z,19.58
2023-05-10T14:28:21.267Z,19.77
2023-05-10T14:30:52.667Z,19.93
2023-05-10T14:33:21.962Z,19.84
2023-05-10T14:35:51.550Z,19.71
2023-05-10T14:38:20.598Z,19.67
2023-05-10T14:40:47.173Z,19.93
2023-05-10T14:43:13.765Z,20.37
2023-05-10T14:45:40.423Z,20.56
2023-05-10T14:48:07.270Z,20.70
2023-05-10T14:50:37.148Z,20.68
2023-05-10T14:53:04.349Z,20.56
2023-05-10T14:55:39.363Z,20.87
2023-05-10T14:58:06.297Z,20.81
2023-05-10T15:00:35.330Z,20.80
2023-05-10T15:03:02.544Z,20.60
2023-05-10T15:05:29.508Z,20.56
2023-05-10T15:07:58.798Z,20.57
2023-05-10T15:10:26.269Z,20.06
2023-05-10T15:12:55.406Z,20.11
2023-05-10T15:15:21.995Z,19.89
2023-05-10T15:17:49.148Z,19.66
2023-05-10T15:20:15.774Z,19.39
2023-05-10T15:22:42.569Z,19.24
2023-05-10T15:25:14.184Z,19.27
2023-05-10T15:27:44.652Z,19.48
2023-05-10T15:30:14.275Z,19.35
2023-05-10T15:32:43.889Z,19.01
2023-05-10T15:35:42.378Z,18.91
2023-05-10T15:38:11.526Z,18.73
2023-05-10T15:40:38.079Z,18.78
2023-05-10T15:43:07.460Z,19.05
2023-05-10T15:45:35.921Z,19.50
2023-05-10T15:48:04.448Z,19.94
2023-05-10T15:50:33.572Z,19.64
2023-05-10T15:53:03.007Z,20.51
2023-05-10T15:55:35.332Z,21.06
2023-05-10T15:58:02.016Z,20.16
2023-05-10T16:00:31.363Z,19.53
2023-05-10T16:02:58.287Z,19.55
2023-05-10T16:05:25.128Z,19.07
2023-05-10T16:07:51.680Z,18.76
2023-05-10T16:10:25.619Z,19.12
2023-05-10T16:12:53.271Z,19.33
2023-05-10T16:15:21.800Z,19.04
2023-05-10T16:17:48.691Z,18.79
2023-05-10T16:20:20.114Z,18.54
2023-05-10T16:22:46.781Z,18.60
2023-05-10T16:25:16.610Z,18.51
2023-05-10T16:27:44.439Z,18.68
2023-05-10T16:30:14.353Z,18.46
2023-05-10T16:32:43.276Z,18.59
2023-05-10T16:35:12.266Z,18.57
2023-05-10T16:37:38.914Z,18.36
2023-05-10T16:40:08.789Z,18.20
2023-05-10T16:42:37.838Z,18.30
2023-05-10T16:45:07.741Z,18.44
2023-05-10T16:47:35.573Z,18.65
2023-05-10T16:50:03.314Z,18.28
2023-05-10T16:52:33.172Z,18.13
2023-05-10T16:54:59.927Z,18.06
2023-05-10T16:57:26.690Z,17.93
2023-05-10T16:59:56.623Z,17.74
2023-05-10T17:02:23.690Z,17.82
2023-05-10T17:04:56.165Z,17.45
2023-05-10T17:07:25.464Z,17.48
2023-05-10T17:09:52.939Z,17.45
2023-05-10T17:12:19.526Z,17.35
2023-05-10T17:14:46.135Z,17.24
2023-05-10T17:17:15.681Z,17.37
2023-05-10T17:19:45.377Z,17.20
2023-05-10T17:22:15.179Z,17.08
2023-05-10T17:24:41.874Z,17.25
2023-05-10T17:27:11.274Z,17.10
2023-05-10T17:29:40.155Z,17.31
2023-05-10T17:32:09.036Z,16.98
2023-05-10T17:34:41.269Z,16.87
2023-05-10T17:37:10.384Z,16.83
2023-05-10T17:39:51.083Z,16.75
2023-05-10T17:42:20.953Z,16.76
2023-05-10T17:44:47.626Z,16.74
2023-05-10T17:47:14.197Z,16.67
2023-05-10T17:49:40.913Z,16.67
2023-05-10T17:52:07.559Z,16.71
2023-05-10T17:54:36.500Z,16.64
2023-05-10T17:57:03.773Z,16.65
2023-05-10T17:59:31.761Z,16.52
2023-05-10T18:05:47.481Z,16.31
2023-05-10T18:08:30.232Z,16.20
2023-05-10T18:10:57.417Z,16.28
2023-05-10T18:23:36.240Z,16.38
2023-05-10T18:29:38.918Z,16.00
2023-05-10T18:36:38.222Z,15.98
2023-05-10T18:39:07.302Z,15.80
2023-05-10T18:41:39.850Z,15.83
2023-05-10T18:44:17.229Z,15.79
2023-05-10T18:46:44.034Z,15.94
2023-05-10T18:52:59.739Z,15.86
2023-05-10T18:55:28.902Z,15.93
2023-05-10T18:58:01.721Z,16.01
2023-05-10T19:04:16.406Z,15.84
2023-05-10T19:13:50.577Z,15.84
2023-05-10T19:16:23.413Z,15.59
2023-05-10T19:18:51.296Z,15.49
2023-05-10T19:21:20.656Z,15.46
2023-05-10T19:23:50.144Z,15.55
2023-05-10T19:26:16.757Z,15.51
2023-05-10T19:28:43.337Z,15.50
2023-05-10T19:31:12.252Z,15.39
2023-05-10T19:33:38.913Z,15.40
2023-05-10T19:36:05.607Z,15.50
2023-05-10T19:38:34.432Z,15.59
2023-05-10T19:41:03.225Z,15.64
2023-05-10T19:43:34.241Z,15.54
2023-05-10T19:46:06.506Z,15.55
2023-05-10T19:48:33.084Z,15.49
2023-05-10T19:51:10.018Z,15.30
2023-05-10T19:53:36.904Z,15.16
2023-05-10T19:56:09.183Z,15.16
2023-05-10T19:58:35.755Z,14.94
2023-05-10T20:01:02.930Z,14.90
2023-05-10T20:03:30.216Z,15.08
2023-05-10T20:05:56.790Z,14.92
2023-05-10T20:08:23.374Z,14.98
2023-05-10T20:10:49.954Z,14.70
2023-05-10T20:13:19.237Z,14.95
2023-05-10T20:15:46.718Z,14.93
2023-05-10T20:18:13.371Z,14.89
2023-05-10T20:20:46.220Z,14.92
2023-05-10T20:23:12.792Z,14.63
2023-05-10T20:25:39.375Z,14.61
2023-05-10T20:28:07.998Z,14.70
2023-05-10T20:30:34.585Z,14.95
2023-05-10T20:33:01.460Z,14.85
2023-05-10T20:35:28.056Z,14.72
2023-05-10T20:37:56.970Z,14.79
2023-05-10T20:40:23.634Z,15.02
2023-05-10T20:42:52.076Z,14.71
2023-05-10T20:45:21.822Z,14.79
2023-05-10T20:47:48.670Z,14.56
2023-05-10T20:50:15.497Z,14.79
2023-05-10T20:52:42.261Z,14.61
2023-05-10T20:55:09.550Z,14.93
2023-05-10T20:57:43.494Z,14.76
2023-05-10T21:00:10.548Z,14.59
2023-05-10T21:02:37.154Z,14.81
2023-05-10T21:05:03.963Z,14.63
2023-05-10T21:07:32.839Z,14.76
2023-05-10T21:10:01.710Z,14.81
2023-05-10T21:12:31.314Z,14.80
2023-05-10T21:15:02.660Z,14.87
2023-05-10T21:17:29.265Z,14.87
2023-05-10T21:19:55.851Z,14.63
2023-05-10T21:22:25.461Z,14.83
2023-05-10T21:24:52.094Z,14.86
2023-05-10T21:27:18.669Z,14.94
2023-05-10T21:29:45.812Z,14.86
2023-05-10T21:32:12.429Z,14.96
2023-05-10T21:34:38.985Z,15.04
2023-05-10T21:37:07.774Z,14.70
2023-05-10T21:39:37.071Z,14.83
2023-05-10T21:42:04.028Z,14.87
2023-05-10T21:44:31.860Z,14.81
2023-05-10T21:47:01.110Z,14.79
2023-05-10T21:49:27.721Z,14.91
2023-05-10T21:51:54.891Z,14.78
2023-05-10T21:54:23.804Z,14.83
2023-05-10T21:56:50.426Z,14.79
2023-05-10T21:59:18.255Z,14.95
2023-05-10T22:01:47.168Z,14.81
2023-05-10T22:04:16.789Z,14.80
2023-05-10T22:06:45.648Z,14.86
2023-05-10T22:09:12.204Z,14.86
2023-05-10T22:11:38.795Z,14.87
2023-05-10T22:14:07.634Z,14.83
2023-05-10T22:16:34.333Z,14.80
2023-05-10T22:19:01.231Z,14.88
2023-05-10T22:21:27.830Z,14.89
2023-05-10T22:23:54.440Z,14.89
2023-05-10T22:26:22.180Z,14.58
2023-05-10T22:28:51.005Z,14.62
2023-05-10T22:31:19.840Z,14.68
2023-05-10T22:33:48.790Z,14.60
2023-05-10T22:36:19.833Z,14.87
2023-05-10T22:38:48.893Z,14.73
2023-05-10T22:41:17.835Z,14.72
2023-05-10T22:43:44.988Z,14.60
2023-05-10T22:46:11.556Z,14.64
2023-05-10T22:48:38.239Z,14.78
2023-05-10T22:51:07.096Z,14.84
2023-05-10T22:53:36.087Z,14.75
2023-05-10T22:56:05.094Z,14.23
2023-05-10T22:58:31.779Z,14.12
2023-05-10T23:01:00.964Z,14.40
2023-05-10T23:03:29.788Z,14.37
2023-05-10T23:05:56.365Z,14.10
2023-05-10T23:08:22.911Z,13.59
2023-05-10T23:10:49.529Z,13.85
2023-05-10T23:13:18.788Z,14.13
2023-05-10T23:15:46.607Z,14.18
2023-05-10T23:18:13.251Z,14.16
2023-05-10T23:20:45.307Z,14.29
2023-05-10T23:23:11.996Z,13.95
2023-05-10T23:25:38.845Z,13.82
2023-05-10T23:28:05.616Z,13.71
2023-05-10T23:30:32.259Z,13.96
2023-05-10T23:33:01.365Z,13.94
2023-05-10T23:35:31.005Z,13.97
2023-05-10T23:37:57.663Z,13.74
2023-05-10T23:40:26.569Z,13.79
2023-05-10T23:42:55.235Z,13.85
2023-05-10T23:45:24.601Z,13.75
2023-05-10T23:47:53.568Z,13.63
2023-05-10T23:50:20.095Z,13.53
2023-05-10T23:52:49.716Z,13.41
2023-05-10T23:55:16.470Z,12.94
2023-05-10T23:57:43.635Z,13.24
